Time;durP1;ratioP1;P1;durP2;ratioP2;P2;SDS_P1;SDS_P2;PMS_P1;PMS_P2;Temp;Humidity;BMP_temperature;BMP_pressure;BME280_temperature;BME280_humidity;BME280_pressure;Samples;Min_cycle;Max_cycle;Signal;HPM_P1;HPM_P2
2023/06/17 00:00:55;;;;;;;11.63;6.47;;;;;;;16.74;100.00;101183.00;4944047;28;20051;-75
2023/06/17 00:03:22;;;;;;;14.60;6.78;;;;;;;16.67;100.00;101174.81;4943204;29;20063;-72
2023/06/17 00:05:49;;;;;;;12.25;6.10;;;;;;;16.65;100.00;101186.47;4945037;29;20542;-72
2023/06/17 00:08:16;;;;;;;15.32;6.93;;;;;;;16.58;100.00;101181.09;4942173;28;20191;-71
2023/06/17 00:10:43;;;;;;;12.45;6.25;;;;;;;16.51;100.00;101186.91;4943578;28;20134;-72
2023/06/17 00:13:10;;;;;;;15.10;6.78;;;;;;;16.45;100.00;101188.72;4943829;28;20499;-72
2023/06/17 00:15:36;;;;;;;13.75;6.72;;;;;;;16.45;100.00;101183.13;4950862;28;20142;-72
2023/06/17 00:18:05;;;;;;;14.68;6.60;;;;;;;16.39;100.00;101184.88;4949197;28;20086;-74
2023/06/17 00:20:32;;;;;;;15.50;6.68;;;;;;;16.30;100.00;101187.56;4944923;28;20059;-72
2023/06/17 00:22:59;;;;;;;16.45;6.70;;;;;;;16.18;100.00;101182.69;4954020;28;20050;-72
2023/06/17 00:25:25;;;;;;;13.65;6.80;;;;;;;16.11;100.00;101174.47;4957147;28;20798;-74
2023/06/17 00:27:52;;;;;;;14.43;6.68;;;;;;;16.08;100.00;101175.34;4945649;28;20501;-74
2023/06/17 00:30:18;;;;;;;15.10;6.85;;;;;;;16.08;100.00;101175.34;4942771;28;20059;-72
2023/06/17 00:32:45;;;;;;;14.05;7.22;;;;;;;16.00;100.00;101173.19;4940781;28;20056;-71
2023/06/17 00:35:12;;;;;;;14.05;6.70;;;;;;;16.01;100.00;101175.56;4944318;28;20428;-71
2023/06/17 00:37:39;;;;;;;19.35;6.50;;;;;;;15.99;100.00;101169.59;4947856;28;20129;-73
2023/06/17 00:40:07;;;;;;;12.38;6.25;;;;;;;15.94;100.00;101172.97;4948458;29;20513;-71
2023/06/17 00:42:35;;;;;;;11.90;6.50;;;;;;;15.86;100.00;101163.16;4947278;28;20145;-74
2023/06/17 00:45:02;;;;;;;12.48;6.30;;;;;;;15.77;100.00;101165.03;4944452;28;20047;-71
2023/06/17 00:47:30;;;;;;;12.25;6.32;;;;;;;15.69;100.00;101153.22;4944752;28;20675;-71
2023/06/17 00:49:57;;;;;;;15.35;6.65;;;;;;;15.52;100.00;101159.31;4942460;28;20047;-71
2023/06/17 00:52:24;;;;;;;13.82;6.75;;;;;;;15.46;100.00;101155.47;4941424;29;20356;-74
2023/06/17 00:54:57;;;;;;;16.90;7.35;;;;;;;15.50;100.00;101156.16;4931642;29;20094;-74
2023/06/17 00:57:23;;;;;;;13.57;6.43;;;;;;;15.48;100.00;101147.41;4934548;29;20187;-72
2023/06/17 00:59:50;;;;;;;16.02;7.03;;;;;;;15.40;100.00;101155.22;4937220;28;20070;-70
2023/06/17 01:02:17;;;;;;;14.60;6.72;;;;;;;15.42;100.00;101152.75;4948206;28;20580;-70
2023/06/17 01:04:46;;;;;;;14.57;7.47;;;;;;;15.35;100.00;101155.72;4943728;29;20699;-72
2023/06/17 01:07:23;;;;;;;14.38;7.03;;;;;;;15.33;100.00;101163.00;4943933;28;20055;-73
2023/06/17 01:10:08;;;;;;;16.58;7.47;;;;;;;15.29;100.00;101165.88;4942928;29;20054;-70
2023/06/17 01:12:36;;;;;;;14.00;6.37;;;;;;;15.28;100.00;101169.09;4943585;29;20055;-71
2023/06/17 01:15:03;;;;;;;14.27;6.78;;;;;;;15.22;100.00;101166.03;4954084;28;20071;-69
2023/06/17 01:17:30;;;;;;;13.82;6.80;;;;;;;15.18;100.00;101173.75;4942776;28;20130;-71
2023/06/17 01:19:57;;;;;;;15.07;7.13;;;;;;;15.11;100.00;101168.34;4941875;28;20138;-69
2023/06/17 01:22:25;;;;;;;16.00;7.53;;;;;;;15.09;100.00;101167.97;4973498;28;20106;-72
2023/06/17 01:24:52;;;;;;;18.23;7.97;;;;;;;15.10;100.00;101163.16;4946913;29;20107;-72
2023/06/17 01:27:18;;;;;;;16.98;7.15;;;;;;;15.10;100.00;101163.16;4943350;28;20470;-70
2023/06/17 01:29:48;;;;;;;16.60;7.38;;;;;;;15.09;100.00;101158.81;4949910;28;20051;-71
2023/06/17 01:32:16;;;;;;;17.63;6.50;;;;;;;15.00;100.00;101151.78;4948652;28;20055;-70
2023/06/17 01:34:53;;;;;;;15.82;7.38;;;;;;;15.00;100.00;101162.97;4947735;28;20051;-72
2023/06/17 01:37:32;;;;;;;14.07;7.60;;;;;;;14.95;100.00;101157.13;4949920;28;20110;-72
2023/06/17 01:40:00;;;;;;;15.95;6.93;;;;;;;14.92;100.00;101160.78;4955361;28;20109;-71
2023/06/17 01:42:31;;;;;;;15.73;7.43;;;;;;;14.79;100.00;101146.72;4949382;28;20051;-67
2023/06/17 01:45:05;;;;;;;14.40;7.35;;;;;;;14.72;100.00;101148.91;4942529;28;20113;-72
2023/06/17 01:47:32;;;;;;;15.93;7.68;;;;;;;14.59;100.00;101154.38;4956984;28;20055;-73
2023/06/17 01:50:00;;;;;;;15.15;7.28;;;;;;;14.53;100.00;101141.34;4941433;28;20055;-73
2023/06/17 01:52:27;;;;;;;16.38;7.25;;;;;;;14.57;100.00;101156.03;4943422;28;20102;-67
2023/06/17 01:54:54;;;;;;;15.80;7.60;;;;;;;14.50;100.00;101145.81;4941846;28;20079;-70
2023/06/17 01:57:20;;;;;;;15.70;7.63;;;;;;;14.45;100.00;101154.69;4940207;29;20150;-71
2023/06/17 01:59:47;;;;;;;16.40;8.00;;;;;;;14.39;100.00;101150.03;4943925;29;20125;-73
2023/06/17 02:02:14;;;;;;;15.27;7.85;;;;;;;14.33;100.00;101146.97;4939393;28;20053;-72
2023/06/17 02:04:41;;;;;;;14.45;7.70;;;;;;;14.32;100.00;101148.16;4940767;29;20058;-74
2023/06/17 02:07:10;;;;;;;17.90;8.23;;;;;;;14.31;100.00;101154.97;4941995;28;20099;-71
2023/06/17 02:09:37;;;;;;;16.80;7.88;;;;;;;14.29;100.00;101154.66;4937744;29;20047;-72
2023/06/17 02:12:05;;;;;;;17.35;7.75;;;;;;;14.28;100.00;101155.06;4939884;28;20054;-71
2023/06/17 02:14:33;;;;;;;15.80;7.55;;;;;;;14.22;100.00;101149.16;4940029;28;20501;-72
2023/06/17 02:17:00;;;;;;;13.77;7.38;;;;;;;14.24;100.00;101160.72;4938116;29;20477;-72
2023/06/17 02:19:28;;;;;;;17.23;7.55;;;;;;;14.19;100.00;101152.06;4941992;28;20125;-73
2023/06/17 02:21:55;;;;;;;15.52;8.00;;;;;;;14.18;100.00;101156.09;4944844;28;20059;-72
2023/06/17 02:24:22;;;;;;;16.20;8.13;;;;;;;14.10;100.00;101141.47;4942375;28;20126;-72
2023/06/17 02:26:49;;;;;;;18.70;9.52;;;;;;;14.06;100.00;101148.34;4972536;28;20082;-72
2023/06/17 02:29:16;;;;;;;15.40;8.13;;;;;;;14.05;100.00;101150.34;4940530;29;20082;-73
2023/06/17 02:31:43;;;;;;;16.55;8.20;;;;;;;13.99;100.00;101151.28;4939398;29;20158;-71
2023/06/17 02:34:10;;;;;;;15.15;7.93;;;;;;;13.97;100.00;101151.72;4941103;28;20057;-72
2023/06/17 02:36:39;;;;;;;15.80;8.35;;;;;;;13.88;100.00;101148.69;4940389;28;20093;-72
2023/06/17 02:39:06;;;;;;;16.42;8.07;;;;;;;13.90;100.00;101148.25;4943470;28;20079;-70
2023/06/17 02:41:33;;;;;;;18.52;7.95;;;;;;;13.88;100.00;101147.91;4941692;28;20079;-70
2023/06/17 02:43:59;;;;;;;16.00;7.90;;;;;;;13.83;100.00;101145.59;4944891;28;20117;-70
2023/06/17 02:46:26;;;;;;;14.80;8.40;;;;;;;13.83;100.00;101146.41;4940752;28;20567;-71
2023/06/17 02:48:54;;;;;;;19.10;9.07;;;;;;;13.75;100.00;101147.78;4949948;28;20217;-72
2023/06/17 02:51:22;;;;;;;15.27;7.53;;;;;;;13.74;100.00;101143.38;4941356;28;20054;-69
2023/06/17 02:53:48;;;;;;;15.45;7.50;;;;;;;13.71;100.00;101146.25;4932171;28;20102;-72
2023/06/17 02:56:15;;;;;;;14.63;8.02;;;;;;;13.72;100.00;101145.84;4897239;28;1091126;-70
2023/06/17 02:58:45;;;;;;;14.25;8.10;;;;;;;13.65;100.00;101145.19;4933988;28;20786;-70
2023/06/17 03:01:12;;;;;;;20.88;8.02;;;;;;;13.56;100.00;101142.94;4929462;29;20047;-76
2023/06/17 03:03:41;;;;;;;14.50;7.70;;;;;;;13.56;100.00;101142.16;4937979;29;20051;-70
2023/06/17 03:06:09;;;;;;;15.52;7.65;;;;;;;13.58;100.00;101145.31;4945341;29;20051;-68
2023/06/17 03:08:38;;;;;;;16.77;8.45;;;;;;;13.50;100.00;101150.22;4941602;28;20150;-70
2023/06/17 03:11:05;;;;;;;14.48;7.68;;;;;;;13.45;100.00;101142.34;4942385;28;20051;-70
2023/06/17 03:13:32;;;;;;;15.35;8.35;;;;;;;13.45;100.00;101136.78;4940291;28;20102;-66
2023/06/17 03:16:01;;;;;;;14.70;7.45;;;;;;;13.47;100.00;101134.31;4938877;28;20075;-71
2023/06/17 03:18:28;;;;;;;17.02;8.18;;;;;;;13.41;100.00;101140.81;4940933;28;20051;-66
2023/06/17 03:20:54;;;;;;;16.17;7.82;;;;;;;13.39;100.00;101138.44;4942595;28;20560;-72
2023/06/17 03:23:22;;;;;;;15.60;8.15;;;;;;;13.40;100.00;101142.03;4946905;28;20606;-70
2023/06/17 03:25:49;;;;;;;15.82;7.53;;;;;;;13.40;100.00;101140.00;4946044;28;20051;-74
2023/06/17 03:28:17;;;;;;;16.48;8.15;;;;;;;13.34;100.00;101132.56;4946001;29;20913;-72
2023/06/17 03:30:44;;;;;;;15.40;7.82;;;;;;;13.31;100.00;101134.22;4949432;28;20058;-70
2023/06/17 03:33:14;;;;;;;17.13;8.05;;;;;;;13.35;100.00;101136.94;4949627;28;20051;-73
2023/06/17 03:35:41;;;;;;;17.65;8.45;;;;;;;13.31;100.00;101130.63;4941457;29;20055;-72
2023/06/17 03:38:08;;;;;;;14.57;7.65;;;;;;;13.28;100.00;101131.47;4944685;28;20090;-72
2023/06/17 03:40:36;;;;;;;15.85;8.48;;;;;;;13.25;100.00;101135.13;4938940;29;20577;-73
2023/06/17 03:43:02;;;;;;;16.10;8.30;;;;;;;13.25;100.00;101140.69;4940638;29;20450;-72
2023/06/17 03:45:30;;;;;;;16.38;8.00;;;;;;;13.22;100.00;101127.59;4939854;28;20678;-72
2023/06/17 03:48:00;;;;;;;18.80;9.15;;;;;;;13.20;100.00;101136.38;4940805;28;20050;-73
2023/06/17 03:50:26;;;;;;;21.90;8.80;;;;;;;13.21;100.00;101134.38;4940903;28;20070;-72
2023/06/17 03:52:53;;;;;;;15.85;7.43;;;;;;;13.19;100.00;101143.19;4941331;28;20059;-71
2023/06/17 03:55:20;;;;;;;20.88;8.75;;;;;;;13.16;100.00;101143.25;4945353;28;20047;-71
2023/06/17 03:57:46;;;;;;;15.77;7.97;;;;;;;13.14;100.00;101143.69;4947062;28;20525;-71
2023/06/17 04:00:15;;;;;;;15.77;8.20;;;;;;;13.11;100.00;101136.16;4946753;28;20051;-74
2023/06/17 04:02:45;;;;;;;20.88;7.85;;;;;;;13.13;100.00;101136.50;4941927;29;20134;-71
2023/06/17 04:05:12;;;;;;;17.63;8.18;;;;;;;13.17;100.00;101130.88;4940149;29;20046;-74
2023/06/17 04:07:40;;;;;;;15.77;8.15;;;;;;;13.20;100.00;101139.19;4943226;28;20106;-71
2023/06/17 04:10:08;;;;;;;17.05;8.27;;;;;;;13.26;100.00;101145.09;4946208;28;20051;-71
2023/06/17 04:12:38;;;;;;;15.95;7.80;;;;;;;13.27;100.00;101141.84;4974656;28;21941;-71
2023/06/17 04:15:07;;;;;;;17.35;8.13;;;;;;;13.25;100.00;101143.47;4941188;29;20465;-74
2023/06/17 04:17:36;;;;;;;19.52;8.73;;;;;;;13.20;100.00;101136.38;4939793;29;20063;-73
2023/06/17 04:20:10;;;;;;;21.30;9.23;;;;;;;13.22;100.00;101138.75;4941289;28;20055;-72
2023/06/17 04:22:42;;;;;;;19.48;8.48;;;;;;;13.23;100.00;101140.34;4940724;29;20055;-71
2023/06/17 04:25:12;;;;;;;17.38;7.82;;;;;;;13.23;100.00;101132.75;4944250;28;20166;-71
2023/06/17 04:27:39;;;;;;;17.92;9.05;;;;;;;13.26;100.00;101136.72;4938529;28;21524;-73
2023/06/17 04:30:08;;;;;;;16.77;8.02;;;;;;;13.28;100.00;101137.84;4940201;29;20106;-73
2023/06/17 04:32:38;;;;;;;16.75;7.97;;;;;;;13.32;100.00;101140.56;4940026;28;20592;-73
2023/06/17 04:35:06;;;;;;;17.27;8.23;;;;;;;13.38;100.00;101133.28;4938801;29;20051;-76
2023/06/17 04:37:34;;;;;;;18.75;8.45;;;;;;;13.49;100.00;101139.47;4942641;28;21352;-73
2023/06/17 04:40:00;;;;;;;17.45;8.40;;;;;;;13.54;100.00;101136.97;4942560;29;20044;-70
2023/06/17 04:42:27;;;;;;;19.67;9.35;;;;;;;13.65;100.00;101136.78;4945542;28;20502;-72
2023/06/17 04:44:54;;;;;;;17.73;8.85;;;;;;;13.70;100.00;101136.28;4941810;29;20051;-72
2023/06/17 04:47:20;;;;;;;16.25;8.65;;;;;;;13.80;100.00;101130.50;4942381;29;20078;-70
2023/06/17 04:49:47;;;;;;;17.90;8.68;;;;;;;13.92;100.00;101134.66;4943173;28;20062;-72
2023/06/17 04:52:14;;;;;;;16.70;8.45;;;;;;;14.02;100.00;101140.03;4943912;28;20052;-71
2023/06/17 04:54:41;;;;;;;16.42;8.43;;;;;;;14.11;100.00;101142.25;4950695;28;20051;-71
2023/06/17 04:57:08;;;;;;;17.42;7.82;;;;;;;14.21;100.00;101132.84;4949449;28;20047;-71
2023/06/17 04:59:35;;;;;;;15.25;7.68;;;;;;;14.30;100.00;101141.44;4944469;28;20520;-71
2023/06/17 05:02:01;;;;;;;17.08;8.02;;;;;;;14.39;100.00;101138.84;4951877;28;20068;-73
2023/06/17 05:04:28;;;;;;;19.77;8.95;;;;;;;14.40;100.00;101135.63;4951284;28;20055;-72
2023/06/17 05:06:55;;;;;;;17.55;8.75;;;;;;;14.45;100.00;101145.53;4951998;28;20106;-72
2023/06/17 05:09:22;;;;;;;20.27;9.75;;;;;;;14.50;100.00;101140.22;4951235;28;20450;-73
2023/06/17 05:11:49;;;;;;;16.80;9.23;;;;;;;14.55;100.00;101145.28;4951161;28;20051;-69
2023/06/17 05:14:16;;;;;;;17.02;9.55;;;;;;;14.63;100.00;101143.13;4951321;28;20090;-69
2023/06/17 05:16:43;;;;;;;20.27;9.50;;;;;;;14.76;100.00;101149.59;4956526;28;20067;-71
2023/06/17 05:19:09;;;;;;;17.27;8.55;;;;;;;14.92;100.00;101152.41;4951817;28;20051;-70
2023/06/17 05:21:36;;;;;;;16.40;8.90;;;;;;;15.04;100.00;101154.50;4951701;28;20076;-72
2023/06/17 05:24:02;;;;;;;16.27;8.55;;;;;;;15.19;100.00;101158.53;4942034;28;20110;-73
2023/06/17 05:26:29;;;;;;;17.48;9.45;;;;;;;15.32;100.00;101161.44;4941619;28;20075;-71
2023/06/17 05:28:57;;;;;;;17.75;9.00;;;;;;;15.36;100.00;101162.91;4942879;28;20051;-73
2023/06/17 05:31:23;;;;;;;18.55;9.73;;;;;;;15.37;100.00;101152.50;4943667;28;20551;-70
2023/06/17 05:33:50;;;;;;;16.83;9.77;;;;;;;15.40;100.00;101146.81;4948544;29;20069;-72
2023/06/17 05:36:16;;;;;;;18.60;9.90;;;;;;;15.54;100.00;101152.03;4941641;28;20128;-71
2023/06/17 05:38:43;;;;;;;21.08;10.32;;;;;;;15.66;100.00;101147.72;4942027;28;20865;-67
2023/06/17 05:41:10;;;;;;;21.25;10.50;;;;;;;15.70;100.00;101148.41;4942725;28;20055;-70
2023/06/17 05:43:36;;;;;;;20.60;10.82;;;;;;;15.79;100.00;101152.16;4949298;28;20537;-72
2023/06/17 05:46:03;;;;;;;20.95;10.30;;;;;;;15.92;100.00;101160.59;4946687;28;20127;-71
2023/06/17 05:48:29;;;;;;;19.17;9.52;;;;;;;15.96;100.00;101164.09;4950482;28;20097;-72
2023/06/17 05:50:56;;;;;;;17.17;9.75;;;;;;;15.94;100.00;101158.94;4950212;28;20071;-71
2023/06/17 05:53:22;;;;;;;19.42;10.75;;;;;;;16.05;100.00;101161.44;4950689;28;20075;-70
2023/06/17 05:55:49;;;;;;;21.25;9.65;;;;;;;16.11;100.00;101152.03;4946972;28;20047;-73
2023/06/17 05:58:16;;;;;;;19.77;10.55;;;;;;;16.20;100.00;101159.81;4953712;28;20054;-72
2023/06/17 06:00:42;;;;;;;18.60;8.50;;;;;;;16.02;100.00;101160.31;4950637;28;20053;-71
2023/06/17 06:03:09;;;;;;;20.63;10.60;;;;;;;16.14;100.00;101151.13;4950156;28;20126;-75
2023/06/17 06:05:36;;;;;;;21.95;11.90;;;;;;;16.30;100.00;101158.72;4950947;28;20524;-74
2023/06/17 06:08:02;;;;;;;18.92;10.80;;;;;;;16.39;100.00;101158.84;4941473;29;20102;-72
2023/06/17 06:10:29;;;;;;;18.85;10.20;;;;;;;16.41;100.00;101154.34;4953208;28;20556;-75
2023/06/17 06:12:56;;;;;;;18.73;9.88;;;;;;;16.32;100.00;101159.84;4950566;28;20051;-71
2023/06/17 06:15:23;;;;;;;19.67;10.00;;;;;;;16.49;100.00;101157.72;4949268;28;20070;-72
2023/06/17 06:17:50;;;;;;;19.63;9.75;;;;;;;16.52;100.00;101160.44;4947227;28;20047;-73
2023/06/17 06:20:16;;;;;;;18.17;9.57;;;;;;;16.63;100.00;101160.88;4950736;28;20069;-72
2023/06/17 06:22:43;;;;;;;23.33;9.98;;;;;;;16.73;100.00;101159.78;4950217;28;20054;-74
2023/06/17 06:25:10;;;;;;;16.48;8.57;;;;;;;16.70;100.00;101166.28;4948497;28;20047;-69
2023/06/17 06:27:36;;;;;;;17.83;7.78;;;;;;;16.87;100.00;101162.13;4945025;28;20083;-69
2023/06/17 06:30:03;;;;;;;15.98;8.55;;;;;;;17.04;100.00;101162.78;4948114;28;20102;-71
2023/06/17 06:32:29;;;;;;;16.33;8.73;;;;;;;17.05;100.00;101148.28;4946448;29;20141;-70
2023/06/17 06:34:56;;;;;;;16.88;8.60;;;;;;;17.23;100.00;101156.16;4947842;28;20210;-69
2023/06/17 06:37:23;;;;;;;18.85;7.82;;;;;;;17.32;100.00;101161.88;4948651;28;20058;-69
2023/06/17 06:39:49;;;;;;;18.20;8.13;;;;;;;17.41;100.00;101166.81;4944641;28;20086;-68
2023/06/17 06:42:16;;;;;;;17.00;8.13;;;;;;;17.43;100.00;101156.66;4949695;28;20501;-68
2023/06/17 06:44:42;;;;;;;16.58;7.78;;;;;;;17.61;100.00;101161.69;4946531;28;20141;-68
2023/06/17 06:47:09;;;;;;;18.38;8.35;;;;;;;17.74;100.00;101157.56;4948233;28;20071;-69
2023/06/17 06:49:35;;;;;;;15.80;7.88;;;;;;;17.90;100.00;101167.84;4950313;28;20074;-69
2023/06/17 06:52:02;;;;;;;17.65;7.88;;;;;;;18.01;100.00;101165.47;4949427;28;20080;-68
2023/06/17 06:54:29;;;;;;;15.88;7.88;;;;;;;18.01;100.00;101157.81;4949807;28;20199;-69
2023/06/17 06:56:55;;;;;;;15.60;7.22;;;;;;;18.12;100.00;101163.06;4945079;28;20086;-69
2023/06/17 06:59:22;;;;;;;20.38;8.40;;;;;;;18.20;100.00;101158.72;4948769;28;20055;-67
2023/06/17 07:01:48;;;;;;;15.23;7.63;;;;;;;18.29;100.00;101161.59;4944844;28;20138;-71
2023/06/17 07:04:15;;;;;;;14.90;7.07;;;;;;;18.33;100.00;101168.63;4948951;28;20097;-69
2023/06/17 07:06:42;;;;;;;15.65;7.90;;;;;;;18.43;100.00;101161.81;4949626;28;20455;-68
2023/06/17 07:09:08;;;;;;;19.13;10.45;;;;;;;18.51;100.00;101156.72;4949572;28;20051;-69
2023/06/17 07:11:35;;;;;;;16.33;8.88;;;;;;;18.67;100.00;101162.13;4948519;28;20051;-72
2023/06/17 07:14:01;;;;;;;19.27;9.70;;;;;;;18.80;100.00;101157.19;4947315;28;20122;-69
2023/06/17 07:16:28;;;;;;;19.42;9.45;;;;;;;18.91;100.00;101160.34;4949529;28;20047;-72
2023/06/17 07:18:54;;;;;;;20.15;9.93;;;;;;;19.02;100.00;101163.53;4951175;28;20390;-70
2023/06/17 07:21:21;;;;;;;20.02;9.48;;;;;;;19.12;100.00;101174.38;4941559;29;20138;-70
2023/06/17 07:23:47;;;;;;;19.02;9.60;;;;;;;19.23;100.00;101171.09;4947886;28;20075;-70
2023/06/17 07:26:14;;;;;;;17.00;8.73;;;;;;;19.21;100.00;101170.78;4943456;28;20059;-70
2023/06/17 07:28:41;;;;;;;17.77;9.68;;;;;;;19.21;100.00;101162.34;4947442;28;20079;-70
2023/06/17 07:31:08;;;;;;;17.38;9.63;;;;;;;19.28;100.00;101167.66;4949074;28;20114;-72
2023/06/17 07:33:34;;;;;;;21.27;9.65;;;;;;;19.35;100.00;101170.19;4948721;28;20048;-68
2023/06/17 07:36:01;;;;;;;18.02;9.48;;;;;;;19.47;100.00;101166.44;4946378;29;20039;-70
2023/06/17 07:38:28;;;;;;;20.42;9.45;;;;;;;19.42;100.00;101161.44;4949152;28;20231;-72
2023/06/17 07:40:54;;;;;;;18.63;9.10;;;;;;;19.61;100.00;101163.81;4952935;28;20051;-72
2023/06/17 07:43:21;;;;;;;17.60;9.43;;;;;;;19.64;100.00;101164.91;4948809;28;20055;-68
2023/06/17 07:45:48;;;;;;;17.42;9.63;;;;;;;19.68;100.00;101160.69;4948602;28;20050;-69
2023/06/17 07:48:14;;;;;;;14.38;7.78;;;;;;;19.68;100.00;101162.75;4949037;28;20138;-68
2023/06/17 07:50:41;;;;;;;16.27;8.05;;;;;;;19.71;100.00;101165.38;4948632;28;20098;-69
2023/06/17 07:53:07;;;;;;;17.13;8.10;;;;;;;19.75;100.00;101166.00;4946914;28;20524;-68
2023/06/17 07:55:34;;;;;;;17.95;9.45;;;;;;;19.85;100.00;101157.56;4945193;28;20134;-69
2023/06/17 07:58:00;;;;;;;15.20;7.68;;;;;;;19.84;100.00;101156.75;4947410;28;20055;-67
2023/06/17 08:00:27;;;;;;;14.98;7.90;;;;;;;20.12;100.00;101169.63;4948248;28;20436;-69
2023/06/17 08:02:54;;;;;;;18.48;8.68;;;;;;;20.26;100.00;101156.91;4946881;28;20534;-70
2023/06/17 08:05:21;;;;;;;17.77;7.22;;;;;;;20.34;100.00;101147.63;4947329;28;20051;-69
2023/06/17 08:07:49;;;;;;;12.35;6.30;;;;;;;20.45;98.34;101159.19;4949059;28;20105;-67
2023/06/17 08:10:16;;;;;;;13.40;6.65;;;;;;;20.60;99.60;101160.09;4950676;28;20059;-70
2023/06/17 08:12:43;;;;;;;12.07;6.47;;;;;;;20.71;96.25;101156.75;4956234;28;20126;-70
2023/06/17 08:15:09;;;;;;;15.32;5.75;;;;;;;20.72;93.88;101155.53;4952224;28;20102;-71
2023/06/17 08:17:36;;;;;;;17.50;6.45;;;;;;;20.76;95.29;101150.47;4959576;28;20106;-73
2023/06/17 08:20:04;;;;;;;16.38;6.95;;;;;;;20.91;96.21;101143.66;4952010;28;20051;-68
2023/06/17 08:22:30;;;;;;;12.45;5.78;;;;;;;20.99;89.90;101144.88;4952898;28;20134;-68
2023/06/17 08:24:57;;;;;;;12.25;6.03;;;;;;;21.16;89.18;101145.28;4951976;28;20114;-68
2023/06/17 08:27:24;;;;;;;15.10;6.50;;;;;;;21.34;91.29;101148.78;4947344;28;20136;-69
2023/06/17 08:29:51;;;;;;;11.98;6.25;;;;;;;21.35;85.68;101141.06;4952301;28;20426;-71
2023/06/17 08:32:17;;;;;;;13.13;6.10;;;;;;;21.50;86.58;101139.06;4951258;28;20062;-67
2023/06/17 08:34:44;;;;;;;13.05;5.90;;;;;;;21.61;83.41;101133.63;4953004;28;20102;-67
2023/06/17 08:37:10;;;;;;;13.85;6.93;;;;;;;21.72;82.60;101136.72;4951737;28;20489;-69
2023/06/17 08:39:39;;;;;;;13.55;5.50;;;;;;;21.71;74.99;101140.81;4952198;28;20365;-68
2023/06/17 08:42:07;;;;;;;13.80;5.72;;;;;;;21.71;78.40;101137.97;4952630;28;20051;-67
2023/06/17 08:44:41;;;;;;;14.82;5.55;;;;;;;21.86;78.00;101138.78;4951746;28;20091;-68
2023/06/17 08:47:12;;;;;;;14.20;5.15;;;;;;;21.83;68.72;101136.91;4951468;28;20055;-68
2023/06/17 08:49:41;;;;;;;13.63;5.75;;;;;;;22.03;72.85;101137.03;4951200;28;20134;-69
2023/06/17 08:52:08;;;;;;;10.82;5.65;;;;;;;22.15;67.54;101133.16;4952067;28;20134;-67
2023/06/17 08:54:40;;;;;;;13.10;5.72;;;;;;;22.26;68.07;101127.69;4951614;28;20486;-68
2023/06/17 08:57:13;;;;;;;14.25;5.60;;;;;;;22.34;67.18;101128.88;4953406;28;20146;-69
2023/06/17 08:59:41;;;;;;;14.68;5.45;;;;;;;22.21;66.77;101124.75;4951061;28;20082;-69
2023/06/17 09:02:10;;;;;;;11.15;5.93;;;;;;;22.38;66.71;101126.66;4948059;28;20086;-72
2023/06/17 09:04:36;;;;;;;10.23;5.45;;;;;;;22.36;67.50;101119.91;4954435;28;20057;-71
2023/06/17 09:07:04;;;;;;;12.00;5.43;;;;;;;22.53;66.80;101121.75;4950926;28;20051;-72
2023/06/17 09:09:30;;;;;;;14.77;5.75;;;;;;;22.72;68.35;101122.28;4951035;28;20125;-69
2023/06/17 09:12:01;;;;;;;9.75;5.55;;;;;;;22.94;64.93;101116.94;4949743;28;20071;-69
2023/06/17 09:14:28;;;;;;;13.25;5.85;;;;;;;23.08;61.49;101116.94;4952046;28;20142;-71
2023/06/17 09:16:54;;;;;;;13.82;6.20;;;;;;;23.28;63.08;101116.94;4951206;28;20075;-68
2023/06/17 09:19:22;;;;;;;13.27;5.55;;;;;;;23.23;60.07;101116.88;4946923;28;20074;-69
2023/06/17 09:21:49;;;;;;;12.30;4.82;;;;;;;23.26;59.59;101121.56;4949337;28;20504;-69
2023/06/17 09:24:15;;;;;;;11.65;4.88;;;;;;;23.32;58.47;101106.16;4951038;28;20087;-68
2023/06/17 09:26:44;;;;;;;11.23;5.43;;;;;;;23.44;54.76;101116.38;4953144;28;20043;-69
2023/06/17 09:29:13;;;;;;;10.70;5.00;;;;;;;23.45;56.67;101114.31;4948889;28;20055;-69
2023/06/17 09:31:53;;;;;;;9.85;4.53;;;;;;;23.46;54.31;101119.50;4951549;28;20083;-68
2023/06/17 09:34:21;;;;;;;15.73;5.13;;;;;;;23.49;53.14;101109.97;4948494;28;20051;-69
2023/06/17 09:37:00;;;;;;;10.98;4.78;;;;;;;23.64;53.50;101121.28;4942190;28;20048;-69
2023/06/17 09:39:32;;;;;;;12.38;4.65;;;;;;;23.77;51.60;101124.53;4943704;29;20077;-69
2023/06/17 09:42:09;;;;;;;10.30;4.75;;;;;;;23.60;50.64;101121.53;4950647;28;20047;-71
2023/06/17 09:44:44;;;;;;;11.55;5.13;;;;;;;23.71;53.73;101118.00;4948782;28;20114;-70
2023/06/17 09:47:11;;;;;;;8.63;4.28;;;;;;;23.88;53.23;101113.28;4947489;28;20039;-69
2023/06/17 09:49:38;;;;;;;11.43;4.90;;;;;;;24.07;52.14;101115.28;4946700;29;20050;-71
2023/06/17 09:52:09;;;;;;;7.43;4.22;;;;;;;24.13;48.84;101118.97;4950066;28;20500;-70
2023/06/17 09:54:36;;;;;;;8.77;4.57;;;;;;;24.05;48.90;101115.03;4950574;28;20047;-70
2023/06/17 09:57:05;;;;;;;9.38;4.53;;;;;;;23.99;48.13;101114.19;4946796;28;20081;-67
2023/06/17 09:59:32;;;;;;;10.05;4.70;;;;;;;24.11;48.16;101118.72;4950866;28;20082;-69
2023/06/17 10:01:59;;;;;;;9.90;4.50;;;;;;;24.24;48.63;101124.78;4947977;28;20102;-71
2023/06/17 10:04:25;;;;;;;12.25;4.60;;;;;;;24.33;46.08;101121.78;4957066;28;20075;-71
2023/06/17 10:06:53;;;;;;;13.90;4.82;;;;;;;24.52;46.80;101116.50;4950039;28;20395;-70
2023/06/17 10:09:20;;;;;;;8.10;4.00;;;;;;;24.59;43.30;101121.72;4950012;28;20627;-69
2023/06/17 10:11:52;;;;;;;11.15;4.72;;;;;;;24.75;43.95;101112.56;4950617;28;20533;-69
2023/06/17 10:14:32;;;;;;;6.72;3.90;;;;;;;24.93;42.28;101117.06;4949770;28;20207;-72
2023/06/17 10:17:02;;;;;;;9.65;4.28;;;;;;;24.96;42.54;101114.00;4948634;29;20505;-70
2023/06/17 10:19:33;;;;;;;8.02;4.15;;;;;;;25.04;41.89;101123.59;4950519;28;20137;-71
2023/06/17 10:22:04;;;;;;;10.55;4.30;;;;;;;25.03;40.42;101113.53;4950792;28;20090;-71
2023/06/17 10:24:31;;;;;;;11.48;4.75;;;;;;;25.15;42.95;101109.47;4948737;28;20129;-70
2023/06/17 10:27:03;;;;;;;6.10;3.80;;;;;;;25.33;42.11;101111.09;4947743;28;20140;-73
2023/06/17 10:29:30;;;;;;;9.30;4.72;;;;;;;25.47;42.38;101098.75;4950234;28;20138;-70
2023/06/17 10:32:09;;;;;;;8.88;4.65;;;;;;;25.53;41.54;101108.09;4949916;28;20105;-73
2023/06/17 10:34:35;;;;;;;10.57;5.00;;;;;;;25.69;41.52;101108.16;4950016;28;20043;-71
2023/06/17 10:37:02;;;;;;;9.25;4.10;;;;;;;25.65;40.98;101104.00;4949976;28;20070;-72
2023/06/17 10:39:28;;;;;;;8.68;4.13;;;;;;;25.71;40.38;101097.03;4949356;28;20068;-72
2023/06/17 10:42:02;;;;;;;9.73;4.00;;;;;;;25.86;38.80;101111.03;4949261;28;20153;-72
2023/06/17 10:44:33;;;;;;;7.65;3.85;;;;;;;25.78;36.51;101105.06;4949602;28;20051;-73
2023/06/17 10:47:01;;;;;;;7.80;3.63;;;;;;;25.49;35.28;101096.97;4950326;28;20102;-72
2023/06/17 10:49:39;;;;;;;7.10;3.45;;;;;;;25.65;35.94;101096.22;4949691;28;20576;-69
2023/06/17 10:52:11;;;;;;;9.95;4.40;;;;;;;25.72;36.95;101095.72;4949827;28;20486;-71
2023/06/17 10:54:53;;;;;;;7.75;4.22;;;;;;;25.86;37.50;101091.91;4947913;28;20078;-72
2023/06/17 10:57:35;;;;;;;8.07;3.92;;;;;;;26.07;37.62;101084.72;4941888;28;20110;-70
2023/06/17 11:00:13;;;;;;;11.07;4.15;;;;;;;26.23;36.58;101094.56;4947955;29;20059;-69
2023/06/17 11:02:40;;;;;;;9.93;3.60;;;;;;;26.32;36.77;101088.59;4972749;28;20079;-69
2023/06/17 11:05:08;;;;;;;8.02;3.97;;;;;;;26.52;36.92;101083.41;4949504;28;20050;-70
2023/06/17 11:07:36;;;;;;;8.48;3.88;;;;;;;26.66;35.51;101078.72;4949436;28;20122;-70
2023/06/17 11:10:03;;;;;;;6.90;3.47;;;;;;;26.49;35.06;101078.75;4950151;28;20054;-72
2023/06/17 11:12:30;;;;;;;6.75;3.90;;;;;;;26.77;36.15;101085.19;4948349;28;20066;-71
2023/06/17 11:14:59;;;;;;;10.40;3.80;;;;;;;27.00;36.71;101085.91;4948530;29;20102;-73